Terminal Aerodrome Forecast
Issued by NWS

Home | Current Version | Previous Version | Text Only | Print | Product List | Glossary On
Versions: 1 2 3 4 5 6 7 8 9 10 11 12 13
000
FTUS46 KEKA 032341
TAFUKI
TAF
KUKI 032341Z 0400/0424 25008KT P6SM SKC
     FM040500 17004KT P6SM SKC
     FM041100 16003KT 6SM BR BKN004
     FM041600 VRB03KT P6SM SKC
     FM041900 13006KT P6SM SKC=

USA.gov is the U.S. government's official web portal to all federal, state and local government web resources and services.